sensor_id;sensor_type;location;lat;lon;timestamp;temperature;humidity
66928;DHT22;59882;45.624;11.698;2022-10-15T00:00:39;15.90;74.90
66928;DHT22;59882;45.624;11.698;2022-10-15T00:03:05;15.90;74.80
66928;DHT22;59882;45.624;11.698;2022-10-15T00:05:31;15.90;74.70
66928;DHT22;59882;45.624;11.698;2022-10-15T00:07:56;15.90;74.50
66928;DHT22;59882;45.624;11.698;2022-10-15T00:10:22;15.90;74.40
66928;DHT22;59882;45.624;11.698;2022-10-15T00:12:48;15.90;74.20
66928;DHT22;59882;45.624;11.698;2022-10-15T00:15:14;15.90;74.20
66928;DHT22;59882;45.624;11.698;2022-10-15T00:17:39;15.90;74.30
66928;DHT22;59882;45.624;11.698;2022-10-15T00:20:08;15.80;74.10
66928;DHT22;59882;45.624;11.698;2022-10-15T00:22:34;15.80;74.20
66928;DHT22;59882;45.624;11.698;2022-10-15T00:25:00;15.80;74.50
66928;DHT22;59882;45.624;11.698;2022-10-15T00:27:26;15.80;74.50
66928;DHT22;59882;45.624;11.698;2022-10-15T00:29:51;15.70;74.70
66928;DHT22;59882;45.624;11.698;2022-10-15T00:32:17;15.70;74.70
66928;DHT22;59882;45.624;11.698;2022-10-15T00:34:43;15.70;74.70
66928;DHT22;59882;45.624;11.698;2022-10-15T00:37:08;15.80;74.90
66928;DHT22;59882;45.624;11.698;2022-10-15T00:39:35;15.80;74.90
66928;DHT22;59882;45.624;11.698;2022-10-15T00:42:00;15.80;74.70
66928;DHT22;59882;45.624;11.698;2022-10-15T00:49:42;15.70;74.50
66928;DHT22;59882;45.624;11.698;2022-10-15T00:52:18;15.70;74.40
66928;DHT22;59882;45.624;11.698;2022-10-15T00:55:02;15.80;74.50
66928;DHT22;59882;45.624;11.698;2022-10-15T00:57:30;15.70;74.60
66928;DHT22;59882;45.624;11.698;2022-10-15T00:59:57;15.70;75.10
66928;DHT22;59882;45.624;11.698;2022-10-15T01:02:24;15.60;75.30
66928;DHT22;59882;45.624;11.698;2022-10-15T01:04:50;15.50;75.50
66928;DHT22;59882;45.624;11.698;2022-10-15T01:07:18;15.60;75.70
66928;DHT22;59882;45.624;11.698;2022-10-15T01:09:44;15.50;76.00
66928;DHT22;59882;45.624;11.698;2022-10-15T01:12:32;15.50;76.00
66928;DHT22;59882;45.624;11.698;2022-10-15T01:17:57;15.40;76.20
66928;DHT22;59882;45.624;11.698;2022-10-15T01:26:44;15.50;76.40
66928;DHT22;59882;45.624;11.698;2022-10-15T01:34:32;15.50;76.30
66928;DHT22;59882;45.624;11.698;2022-10-15T01:37:18;15.50;75.80
66928;DHT22;59882;45.624;11.698;2022-10-15T01:40:04;15.60;75.40
66928;DHT22;59882;45.624;11.698;2022-10-15T01:42:36;15.60;75.50
66928;DHT22;59882;45.624;11.698;2022-10-15T01:45:15;15.60;75.80
66928;DHT22;59882;45.624;11.698;2022-10-15T01:47:48;15.60;75.90
66928;DHT22;59882;45.624;11.698;2022-10-15T01:50:18;15.60;75.90
66928;DHT22;59882;45.624;11.698;2022-10-15T01:52:45;15.60;75.80
66928;DHT22;59882;45.624;11.698;2022-10-15T01:55:14;15.60;75.90
66928;DHT22;59882;45.624;11.698;2022-10-15T01:57:43;15.60;75.80
66928;DHT22;59882;45.624;11.698;2022-10-15T02:00:09;15.60;76.00
66928;DHT22;59882;45.624;11.698;2022-10-15T02:02:35;15.50;75.60
66928;DHT22;59882;45.624;11.698;2022-10-15T02:05:02;15.60;75.50
66928;DHT22;59882;45.624;11.698;2022-10-15T02:07:56;15.60;75.80
66928;DHT22;59882;45.624;11.698;2022-10-15T02:10:28;15.50;76.10
66928;DHT22;59882;45.624;11.698;2022-10-15T02:13:12;15.50;76.10
66928;DHT22;59882;45.624;11.698;2022-10-15T02:23:46;15.50;76.50
66928;DHT22;59882;45.624;11.698;2022-10-15T02:26:13;15.50;76.40
66928;DHT22;59882;45.624;11.698;2022-10-15T02:28:43;15.50;76.40
66928;DHT22;59882;45.624;11.698;2022-10-15T02:31:12;15.50;76.50
66928;DHT22;59882;45.624;11.698;2022-10-15T02:33:38;15.50;76.60
66928;DHT22;59882;45.624;11.698;2022-10-15T02:36:06;15.60;76.50
66928;DHT22;59882;45.624;11.698;2022-10-15T02:38:34;15.50;76.60
66928;DHT22;59882;45.624;11.698;2022-10-15T02:41:01;15.60;76.60
66928;DHT22;59882;45.624;11.698;2022-10-15T02:43:27;15.50;76.10
66928;DHT22;59882;45.624;11.698;2022-10-15T02:45:52;15.60;76.30
66928;DHT22;59882;45.624;11.698;2022-10-15T02:48:18;15.60;76.30
66928;DHT22;59882;45.624;11.698;2022-10-15T02:50:44;15.60;76.50
66928;DHT22;59882;45.624;11.698;2022-10-15T02:53:09;15.60;76.10
66928;DHT22;59882;45.624;11.698;2022-10-15T02:55:35;15.60;76.40
66928;DHT22;59882;45.624;11.698;2022-10-15T02:58:00;15.60;76.40
66928;DHT22;59882;45.624;11.698;2022-10-15T03:00:26;15.60;76.40
66928;DHT22;59882;45.624;11.698;2022-10-15T03:02:52;15.50;76.60
66928;DHT22;59882;45.624;11.698;2022-10-15T03:05:18;15.50;76.70
66928;DHT22;59882;45.624;11.698;2022-10-15T03:07:43;15.50;76.60
66928;DHT22;59882;45.624;11.698;2022-10-15T03:10:09;15.50;76.40
66928;DHT22;59882;45.624;11.698;2022-10-15T03:12:34;15.50;76.60
66928;DHT22;59882;45.624;11.698;2022-10-15T03:15:01;15.40;76.80
66928;DHT22;59882;45.624;11.698;2022-10-15T03:17:26;15.40;77.00
66928;DHT22;59882;45.624;11.698;2022-10-15T03:19:52;15.40;77.10
66928;DHT22;59882;45.624;11.698;2022-10-15T03:22:17;15.40;76.90
66928;DHT22;59882;45.624;11.698;2022-10-15T03:24:43;15.40;77.00
66928;DHT22;59882;45.624;11.698;2022-10-15T03:27:09;15.40;77.10
66928;DHT22;59882;45.624;11.698;2022-10-15T03:29:34;15.40;77.10
66928;DHT22;59882;45.624;11.698;2022-10-15T03:32:00;15.40;77.10
66928;DHT22;59882;45.624;11.698;2022-10-15T03:34:26;15.40;77.10
66928;DHT22;59882;45.624;11.698;2022-10-15T03:36:51;15.40;77.10
66928;DHT22;59882;45.624;11.698;2022-10-15T03:39:17;15.40;77.20
66928;DHT22;59882;45.624;11.698;2022-10-15T03:41:42;15.40;77.40
66928;DHT22;59882;45.624;11.698;2022-10-15T03:44:09;15.40;77.20
66928;DHT22;59882;45.624;11.698;2022-10-15T03:46:35;15.40;77.20
66928;DHT22;59882;45.624;11.698;2022-10-15T03:49:00;15.40;77.10
66928;DHT22;59882;45.624;11.698;2022-10-15T03:51:26;15.40;77.10
66928;DHT22;59882;45.624;11.698;2022-10-15T03:53:52;15.40;77.10
66928;DHT22;59882;45.624;11.698;2022-10-15T03:56:18;15.40;76.90
66928;DHT22;59882;45.624;11.698;2022-10-15T03:58:44;15.40;76.60
66928;DHT22;59882;45.624;11.698;2022-10-15T04:01:12;15.40;76.60
66928;DHT22;59882;45.624;11.698;2022-10-15T04:03:38;15.40;76.80
66928;DHT22;59882;45.624;11.698;2022-10-15T04:06:04;15.40;76.90
66928;DHT22;59882;45.624;11.698;2022-10-15T04:08:30;15.40;77.00
66928;DHT22;59882;45.624;11.698;2022-10-15T04:10:56;15.40;77.10
66928;DHT22;59882;45.624;11.698;2022-10-15T04:13:23;15.40;77.00
66928;DHT22;59882;45.624;11.698;2022-10-15T04:15:49;15.40;77.20
66928;DHT22;59882;45.624;11.698;2022-10-15T04:18:15;15.40;77.20
66928;DHT22;59882;45.624;11.698;2022-10-15T04:20:41;15.40;77.20
66928;DHT22;59882;45.624;11.698;2022-10-15T04:23:07;15.40;77.20
66928;DHT22;59882;45.624;11.698;2022-10-15T04:25:34;15.40;77.30
66928;DHT22;59882;45.624;11.698;2022-10-15T04:28:00;15.40;77.30
66928;DHT22;59882;45.624;11.698;2022-10-15T04:30:26;15.40;77.40
66928;DHT22;59882;45.624;11.698;2022-10-15T04:32:52;15.40;77.30
66928;DHT22;59882;45.624;11.698;2022-10-15T04:35:18;15.40;77.20
66928;DHT22;59882;45.624;11.698;2022-10-15T04:37:44;15.40;77.20
66928;DHT22;59882;45.624;11.698;2022-10-15T04:40:10;15.40;77.20
66928;DHT22;59882;45.624;11.698;2022-10-15T04:42:37;15.40;77.10
66928;DHT22;59882;45.624;11.698;2022-10-15T04:45:03;15.40;77.20
66928;DHT22;59882;45.624;11.698;2022-10-15T04:47:29;15.40;77.40
66928;DHT22;59882;45.624;11.698;2022-10-15T04:49:54;15.40;77.30
66928;DHT22;59882;45.624;11.698;2022-10-15T04:52:20;15.40;77.20
66928;DHT22;59882;45.624;11.698;2022-10-15T04:54:46;15.40;77.20
66928;DHT22;59882;45.624;11.698;2022-10-15T04:57:11;15.40;77.20
66928;DHT22;59882;45.624;11.698;2022-10-15T04:59:37;15.40;77.10
66928;DHT22;59882;45.624;11.698;2022-10-15T05:02:02;15.40;77.00
66928;DHT22;59882;45.624;11.698;2022-10-15T05:04:28;15.40;77.10
66928;DHT22;59882;45.624;11.698;2022-10-15T05:06:54;15.40;77.00
66928;DHT22;59882;45.624;11.698;2022-10-15T05:09:19;15.40;77.10
66928;DHT22;59882;45.624;11.698;2022-10-15T05:11:45;15.40;77.30
66928;DHT22;59882;45.624;11.698;2022-10-15T05:14:11;15.30;77.20
66928;DHT22;59882;45.624;11.698;2022-10-15T05:16:37;15.40;77.00
66928;DHT22;59882;45.624;11.698;2022-10-15T05:19:05;15.30;77.10
66928;DHT22;59882;45.624;11.698;2022-10-15T05:21:32;15.30;77.30
66928;DHT22;59882;45.624;11.698;2022-10-15T05:23:58;15.30;77.50
66928;DHT22;59882;45.624;11.698;2022-10-15T05:26:26;15.20;77.70
66928;DHT22;59882;45.624;11.698;2022-10-15T05:28:52;15.20;77.80
66928;DHT22;59882;45.624;11.698;2022-10-15T05:31:19;15.20;77.60
66928;DHT22;59882;45.624;11.698;2022-10-15T05:33:47;15.20;77.70
66928;DHT22;59882;45.624;11.698;2022-10-15T05:36:14;15.20;77.70
66928;DHT22;59882;45.624;11.698;2022-10-15T05:38:42;15.20;77.80
66928;DHT22;59882;45.624;11.698;2022-10-15T05:41:08;15.20;77.90
66928;DHT22;59882;45.624;11.698;2022-10-15T05:43:34;15.20;77.90
66928;DHT22;59882;45.624;11.698;2022-10-15T05:45:59;15.20;77.80
66928;DHT22;59882;45.624;11.698;2022-10-15T05:48:25;15.20;77.80
66928;DHT22;59882;45.624;11.698;2022-10-15T05:50:51;15.20;77.80
66928;DHT22;59882;45.624;11.698;2022-10-15T05:53:16;15.20;77.80
66928;DHT22;59882;45.624;11.698;2022-10-15T05:55:42;15.20;77.70
66928;DHT22;59882;45.624;11.698;2022-10-15T05:58:08;15.20;77.80
66928;DHT22;59882;45.624;11.698;2022-10-15T06:00:34;15.20;77.80
66928;DHT22;59882;45.624;11.698;2022-10-15T06:03:00;15.20;77.70
66928;DHT22;59882;45.624;11.698;2022-10-15T06:05:26;15.20;77.90
66928;DHT22;59882;45.624;11.698;2022-10-15T06:07:51;15.20;78.00
66928;DHT22;59882;45.624;11.698;2022-10-15T06:10:18;15.20;77.80
66928;DHT22;59882;45.624;11.698;2022-10-15T06:12:48;15.20;78.20
66928;DHT22;59882;45.624;11.698;2022-10-15T06:15:15;15.20;78.20
66928;DHT22;59882;45.624;11.698;2022-10-15T06:17:41;15.20;78.20
66928;DHT22;59882;45.624;11.698;2022-10-15T06:20:06;15.20;78.20
66928;DHT22;59882;45.624;11.698;2022-10-15T06:22:32;15.20;78.30
66928;DHT22;59882;45.624;11.698;2022-10-15T06:24:58;15.20;78.60
66928;DHT22;59882;45.624;11.698;2022-10-15T06:27:24;15.30;78.50
66928;DHT22;59882;45.624;11.698;2022-10-15T06:29:50;15.30;78.50
66928;DHT22;59882;45.624;11.698;2022-10-15T06:32:16;15.30;78.40
66928;DHT22;59882;45.624;11.698;2022-10-15T06:34:43;15.30;78.40
66928;DHT22;59882;45.624;11.698;2022-10-15T06:37:08;15.40;78.40
66928;DHT22;59882;45.624;11.698;2022-10-15T06:39:34;15.30;78.30
66928;DHT22;59882;45.624;11.698;2022-10-15T06:42:00;15.40;78.40
66928;DHT22;59882;45.624;11.698;2022-10-15T06:44:25;15.40;78.20
66928;DHT22;59882;45.624;11.698;2022-10-15T06:46:51;15.40;78.20
66928;DHT22;59882;45.624;11.698;2022-10-15T06:49:17;15.50;78.30
66928;DHT22;59882;45.624;11.698;2022-10-15T06:51:42;15.60;78.10
66928;DHT22;59882;45.624;11.698;2022-10-15T06:54:08;15.60;77.90
66928;DHT22;59882;45.624;11.698;2022-10-15T06:56:33;15.70;77.90
66928;DHT22;59882;45.624;11.698;2022-10-15T06:58:59;15.80;78.00
66928;DHT22;59882;45.624;11.698;2022-10-15T07:01:25;15.80;78.20
66928;DHT22;59882;45.624;11.698;2022-10-15T07:03:50;15.90;78.20
66928;DHT22;59882;45.624;11.698;2022-10-15T07:06:17;15.90;78.50
66928;DHT22;59882;45.624;11.698;2022-10-15T07:08:42;16.00;78.00
66928;DHT22;59882;45.624;11.698;2022-10-15T07:11:09;16.00;77.90
66928;DHT22;59882;45.624;11.698;2022-10-15T07:13:35;16.10;78.10
66928;DHT22;59882;45.624;11.698;2022-10-15T07:16:08;16.20;78.00
66928;DHT22;59882;45.624;11.698;2022-10-15T07:18:35;16.20;77.80
66928;DHT22;59882;45.624;11.698;2022-10-15T07:21:02;16.30;77.70
66928;DHT22;59882;45.624;11.698;2022-10-15T07:23:27;16.40;77.70
66928;DHT22;59882;45.624;11.698;2022-10-15T07:25:55;16.40;77.60
66928;DHT22;59882;45.624;11.698;2022-10-15T07:28:21;16.50;77.50
66928;DHT22;59882;45.624;11.698;2022-10-15T07:30:47;16.50;77.30
66928;DHT22;59882;45.624;11.698;2022-10-15T07:33:12;16.60;77.10
66928;DHT22;59882;45.624;11.698;2022-10-15T07:35:38;16.70;77.10
66928;DHT22;59882;45.624;11.698;2022-10-15T07:38:03;16.80;77.00
66928;DHT22;59882;45.624;11.698;2022-10-15T07:40:29;16.80;76.80
66928;DHT22;59882;45.624;11.698;2022-10-15T07:42:56;16.90;76.20
66928;DHT22;59882;45.624;11.698;2022-10-15T07:45:23;16.90;75.60
66928;DHT22;59882;45.624;11.698;2022-10-15T07:47:49;17.00;73.80
66928;DHT22;59882;45.624;11.698;2022-10-15T07:50:15;17.10;74.50
66928;DHT22;59882;45.624;11.698;2022-10-15T07:52:40;17.10;74.90
66928;DHT22;59882;45.624;11.698;2022-10-15T07:55:07;17.10;75.50
66928;DHT22;59882;45.624;11.698;2022-10-15T07:57:32;17.10;75.40
66928;DHT22;59882;45.624;11.698;2022-10-15T07:59:58;17.20;75.60
66928;DHT22;59882;45.624;11.698;2022-10-15T08:02:24;17.20;75.00
66928;DHT22;59882;45.624;11.698;2022-10-15T08:04:50;17.30;74.50
66928;DHT22;59882;45.624;11.698;2022-10-15T08:07:16;17.40;73.60
66928;DHT22;59882;45.624;11.698;2022-10-15T08:09:42;17.50;73.90
66928;DHT22;59882;45.624;11.698;2022-10-15T08:12:08;17.50;70.40
66928;DHT22;59882;45.624;11.698;2022-10-15T08:14:34;17.60;71.50
66928;DHT22;59882;45.624;11.698;2022-10-15T08:17:04;17.70;71.00
66928;DHT22;59882;45.624;11.698;2022-10-15T08:19:30;17.80;70.70
66928;DHT22;59882;45.624;11.698;2022-10-15T08:21:56;17.80;70.70
66928;DHT22;59882;45.624;11.698;2022-10-15T08:24:22;17.90;70.30
66928;DHT22;59882;45.624;11.698;2022-10-15T08:26:48;17.90;70.50
66928;DHT22;59882;45.624;11.698;2022-10-15T08:29:14;18.00;69.10
66928;DHT22;59882;45.624;11.698;2022-10-15T08:31:40;18.00;68.40
66928;DHT22;59882;45.624;11.698;2022-10-15T08:34:06;18.10;68.40
66928;DHT22;59882;45.624;11.698;2022-10-15T08:36:32;18.10;68.70
66928;DHT22;59882;45.624;11.698;2022-10-15T08:38:57;18.10;68.80
66928;DHT22;59882;45.624;11.698;2022-10-15T08:41:40;18.20;69.10
66928;DHT22;59882;45.624;11.698;2022-10-15T08:49:55;18.40;66.10
66928;DHT22;59882;45.624;11.698;2022-10-15T08:55:09;18.50;66.80
66928;DHT22;59882;45.624;11.698;2022-10-15T08:57:46;18.60;66.60
66928;DHT22;59882;45.624;11.698;2022-10-15T09:01:04;18.70;65.80
66928;DHT22;59882;45.624;11.698;2022-10-15T09:03:23;18.70;66.60
66928;DHT22;59882;45.624;11.698;2022-10-15T09:06:00;18.80;66.50
66928;DHT22;59882;45.624;11.698;2022-10-15T09:13:55;18.90;65.60
66928;DHT22;59882;45.624;11.698;2022-10-15T09:16:26;18.90;65.50
66928;DHT22;59882;45.624;11.698;2022-10-15T09:18:54;18.90;65.10
66928;DHT22;59882;45.624;11.698;2022-10-15T09:21:23;19.00;63.50
66928;DHT22;59882;45.624;11.698;2022-10-15T09:23:50;19.00;64.30
66928;DHT22;59882;45.624;11.698;2022-10-15T09:29:33;19.10;62.70
66928;DHT22;59882;45.624;11.698;2022-10-15T09:32:51;19.10;62.30
66928;DHT22;59882;45.624;11.698;2022-10-15T09:43:38;19.30;60.00
66928;DHT22;59882;45.624;11.698;2022-10-15T09:46:05;19.40;60.70
66928;DHT22;59882;45.624;11.698;2022-10-15T09:48:39;19.50;61.20
66928;DHT22;59882;45.624;11.698;2022-10-15T09:51:26;19.60;62.10
66928;DHT22;59882;45.624;11.698;2022-10-15T09:56:51;19.80;62.50
66928;DHT22;59882;45.624;11.698;2022-10-15T09:59:18;19.90;62.40
66928;DHT22;59882;45.624;11.698;2022-10-15T10:02:17;19.90;62.30
66928;DHT22;59882;45.624;11.698;2022-10-15T10:04:43;20.00;60.20
66928;DHT22;59882;45.624;11.698;2022-10-15T10:09:55;20.10;60.70
66928;DHT22;59882;45.624;11.698;2022-10-15T10:12:32;20.20;61.00
66928;DHT22;59882;45.624;11.698;2022-10-15T10:17:30;20.40;59.00
66928;DHT22;59882;45.624;11.698;2022-10-15T10:22:49;20.60;59.50
66928;DHT22;59882;45.624;11.698;2022-10-15T10:28:23;20.80;59.30
66928;DHT22;59882;45.624;11.698;2022-10-15T10:30:52;20.90;59.30
66928;DHT22;59882;45.624;11.698;2022-10-15T10:35:56;21.00;58.10
66928;DHT22;59882;45.624;11.698;2022-10-15T10:38:34;21.10;58.30
66928;DHT22;59882;45.624;11.698;2022-10-15T10:41:05;21.20;58.60
66928;DHT22;59882;45.624;11.698;2022-10-15T10:43:35;21.30;58.70
66928;DHT22;59882;45.624;11.698;2022-10-15T10:48:41;21.50;57.90
66928;DHT22;59882;45.624;11.698;2022-10-15T10:53:58;21.60;56.20
66928;DHT22;59882;45.624;11.698;2022-10-15T10:56:29;21.70;56.60
66928;DHT22;59882;45.624;11.698;2022-10-15T10:59:02;21.80;57.40
66928;DHT22;59882;45.624;11.698;2022-10-15T11:01:31;21.80;55.00
66928;DHT22;59882;45.624;11.698;2022-10-15T11:03:56;21.90;54.50
66928;DHT22;59882;45.624;11.698;2022-10-15T11:43:26;23.30;54.40
66928;DHT22;59882;45.624;11.698;2022-10-15T11:49:01;23.60;53.80
66928;DHT22;59882;45.624;11.698;2022-10-15T11:54:42;24.10;51.20
66928;DHT22;59882;45.624;11.698;2022-10-15T11:57:16;24.30;51.20
66928;DHT22;59882;45.624;11.698;2022-10-15T12:02:21;24.60;52.20
66928;DHT22;59882;45.624;11.698;2022-10-15T12:04:58;24.60;51.20
66928;DHT22;59882;45.624;11.698;2022-10-15T12:07:36;24.60;52.10
66928;DHT22;59882;45.624;11.698;2022-10-15T12:10:31;24.70;50.50
66928;DHT22;59882;45.624;11.698;2022-10-15T12:18:35;24.50;51.70
66928;DHT22;59882;45.624;11.698;2022-10-15T12:21:02;24.50;52.00
66928;DHT22;59882;45.624;11.698;2022-10-15T12:28:53;24.50;50.50
66928;DHT22;59882;45.624;11.698;2022-10-15T12:31:20;24.80;52.10
66928;DHT22;59882;45.624;11.698;2022-10-15T12:33:48;25.10;50.90
66928;DHT22;59882;45.624;11.698;2022-10-15T12:41:37;25.40;50.00
66928;DHT22;59882;45.624;11.698;2022-10-15T12:44:19;25.40;49.00
66928;DHT22;59882;45.624;11.698;2022-10-15T12:46:45;25.60;49.30
66928;DHT22;59882;45.624;11.698;2022-10-15T12:51:57;25.90;49.10
66928;DHT22;59882;45.624;11.698;2022-10-15T12:56:58;25.90;48.90
66928;DHT22;59882;45.624;11.698;2022-10-15T13:02:41;26.40;49.10
66928;DHT22;59882;45.624;11.698;2022-10-15T13:05:26;26.90;47.20
66928;DHT22;59882;45.624;11.698;2022-10-15T13:07:53;26.90;45.70
66928;DHT22;59882;45.624;11.698;2022-10-15T13:10:34;27.20;46.10
66928;DHT22;59882;45.624;11.698;2022-10-15T13:13:05;27.60;45.50
66928;DHT22;59882;45.624;11.698;2022-10-15T13:15:33;27.90;46.50
66928;DHT22;59882;45.624;11.698;2022-10-15T13:18:05;28.00;44.70
66928;DHT22;59882;45.624;11.698;2022-10-15T13:20:43;27.90;44.00
66928;DHT22;59882;45.624;11.698;2022-10-15T13:23:27;27.70;45.20
66928;DHT22;59882;45.624;11.698;2022-10-15T13:26:23;27.40;45.40
66928;DHT22;59882;45.624;11.698;2022-10-15T13:28:56;27.00;45.50
66928;DHT22;59882;45.624;11.698;2022-10-15T13:31:28;26.80;46.30
66928;DHT22;59882;45.624;11.698;2022-10-15T13:33:58;26.50;47.10
66928;DHT22;59882;45.624;11.698;2022-10-15T13:36:31;26.40;47.50
66928;DHT22;59882;45.624;11.698;2022-10-15T13:39:05;26.20;47.60
66928;DHT22;59882;45.624;11.698;2022-10-15T13:41:36;26.00;48.20
66928;DHT22;59882;45.624;11.698;2022-10-15T13:44:04;25.80;48.70
66928;DHT22;59882;45.624;11.698;2022-10-15T13:46:33;25.60;49.10
66928;DHT22;59882;45.624;11.698;2022-10-15T13:49:07;25.40;49.30
66928;DHT22;59882;45.624;11.698;2022-10-15T13:51:37;25.40;50.30
66928;DHT22;59882;45.624;11.698;2022-10-15T13:54:19;25.40;50.60
66928;DHT22;59882;45.624;11.698;2022-10-15T13:56:52;25.50;50.50
66928;DHT22;59882;45.624;11.698;2022-10-15T13:59:19;25.70;49.40
66928;DHT22;59882;45.624;11.698;2022-10-15T14:01:47;26.00;49.40
66928;DHT22;59882;45.624;11.698;2022-10-15T14:04:16;26.30;47.20
66928;DHT22;59882;45.624;11.698;2022-10-15T14:06:52;26.60;47.00
66928;DHT22;59882;45.624;11.698;2022-10-15T14:09:40;26.70;47.80
66928;DHT22;59882;45.624;11.698;2022-10-15T14:12:09;26.80;47.40
66928;DHT22;59882;45.624;11.698;2022-10-15T14:14:37;26.80;47.50
66928;DHT22;59882;45.624;11.698;2022-10-15T14:17:26;26.70;47.50
66928;DHT22;59882;45.624;11.698;2022-10-15T14:22:21;26.40;47.10
66928;DHT22;59882;45.624;11.698;2022-10-15T14:24:52;26.20;47.30
66928;DHT22;59882;45.624;11.698;2022-10-15T14:27:23;26.00;47.10
66928;DHT22;59882;45.624;11.698;2022-10-15T14:29:59;25.80;47.10
66928;DHT22;59882;45.624;11.698;2022-10-15T14:34:56;25.40;47.70
66928;DHT22;59882;45.624;11.698;2022-10-15T14:40:07;25.00;48.10
66928;DHT22;59882;45.624;11.698;2022-10-15T14:43:16;24.90;48.50
66928;DHT22;59882;45.624;11.698;2022-10-15T14:45:54;24.60;49.20
66928;DHT22;59882;45.624;11.698;2022-10-15T14:48:27;24.50;50.10
66928;DHT22;59882;45.624;11.698;2022-10-15T14:51:02;24.40;51.20
66928;DHT22;59882;45.624;11.698;2022-10-15T14:53:31;24.20;51.20
66928;DHT22;59882;45.624;11.698;2022-10-15T14:56:04;24.10;51.70
66928;DHT22;59882;45.624;11.698;2022-10-15T14:58:31;23.90;52.40
66928;DHT22;59882;45.624;11.698;2022-10-15T15:01:04;23.90;53.00
66928;DHT22;59882;45.624;11.698;2022-10-15T15:03:41;23.70;53.30
66928;DHT22;59882;45.624;11.698;2022-10-15T15:06:08;23.60;53.70
66928;DHT22;59882;45.624;11.698;2022-10-15T15:08:34;23.60;54.10
66928;DHT22;59882;45.624;11.698;2022-10-15T15:11:02;23.50;54.10
66928;DHT22;59882;45.624;11.698;2022-10-15T15:13:31;23.40;54.70
66928;DHT22;59882;45.624;11.698;2022-10-15T15:15:57;23.40;54.90
66928;DHT22;59882;45.624;11.698;2022-10-15T15:18:23;23.40;55.50
66928;DHT22;59882;45.624;11.698;2022-10-15T15:20:49;23.40;55.50
66928;DHT22;59882;45.624;11.698;2022-10-15T15:23:21;23.30;55.90
66928;DHT22;59882;45.624;11.698;2022-10-15T15:25:47;23.30;56.10
66928;DHT22;59882;45.624;11.698;2022-10-15T15:28:16;23.20;56.10
66928;DHT22;59882;45.624;11.698;2022-10-15T15:30:45;23.20;56.20
66928;DHT22;59882;45.624;11.698;2022-10-15T15:36:15;23.00;56.60
66928;DHT22;59882;45.624;11.698;2022-10-15T15:38:42;23.00;57.30
66928;DHT22;59882;45.624;11.698;2022-10-15T15:41:14;22.90;57.30
66928;DHT22;59882;45.624;11.698;2022-10-15T15:43:41;22.90;57.30
66928;DHT22;59882;45.624;11.698;2022-10-15T15:46:07;22.80;57.40
66928;DHT22;59882;45.624;11.698;2022-10-15T15:48:32;22.80;57.50
66928;DHT22;59882;45.624;11.698;2022-10-15T15:51:01;22.70;57.70
66928;DHT22;59882;45.624;11.698;2022-10-15T15:53:27;22.60;57.70
66928;DHT22;59882;45.624;11.698;2022-10-15T15:55:53;22.60;58.30
66928;DHT22;59882;45.624;11.698;2022-10-15T15:58:19;22.40;58.30
66928;DHT22;59882;45.624;11.698;2022-10-15T16:00:44;22.40;58.60
66928;DHT22;59882;45.624;11.698;2022-10-15T16:03:14;22.40;58.90
66928;DHT22;59882;45.624;11.698;2022-10-15T16:05:40;22.30;60.10
66928;DHT22;59882;45.624;11.698;2022-10-15T16:08:07;22.20;60.70
66928;DHT22;59882;45.624;11.698;2022-10-15T16:10:33;22.10;61.00
66928;DHT22;59882;45.624;11.698;2022-10-15T16:13:00;22.00;61.20
66928;DHT22;59882;45.624;11.698;2022-10-15T16:15:25;21.90;61.40
66928;DHT22;59882;45.624;11.698;2022-10-15T16:17:51;21.90;61.90
66928;DHT22;59882;45.624;11.698;2022-10-15T16:20:17;21.80;62.30
66928;DHT22;59882;45.624;11.698;2022-10-15T16:22:42;21.70;62.10
66928;DHT22;59882;45.624;11.698;2022-10-15T16:25:09;21.60;62.60
66928;DHT22;59882;45.624;11.698;2022-10-15T16:27:34;21.60;63.00
66928;DHT22;59882;45.624;11.698;2022-10-15T16:30:01;21.50;63.90
66928;DHT22;59882;45.624;11.698;2022-10-15T16:32:27;21.50;63.80
66928;DHT22;59882;45.624;11.698;2022-10-15T16:34:52;21.40;63.50
66928;DHT22;59882;45.624;11.698;2022-10-15T16:37:18;21.30;63.90
66928;DHT22;59882;45.624;11.698;2022-10-15T16:39:44;21.20;63.80
66928;DHT22;59882;45.624;11.698;2022-10-15T16:42:09;21.20;63.80
66928;DHT22;59882;45.624;11.698;2022-10-15T16:44:38;21.10;64.40
66928;DHT22;59882;45.624;11.698;2022-10-15T16:47:03;21.10;64.20
66928;DHT22;59882;45.624;11.698;2022-10-15T16:49:29;21.00;64.50
66928;DHT22;59882;45.624;11.698;2022-10-15T16:51:55;20.90;63.90
66928;DHT22;59882;45.624;11.698;2022-10-15T16:54:21;20.90;63.70
66928;DHT22;59882;45.624;11.698;2022-10-15T16:56:47;20.80;63.50
66928;DHT22;59882;45.624;11.698;2022-10-15T16:59:14;20.70;63.70
66928;DHT22;59882;45.624;11.698;2022-10-15T17:01:39;20.70;63.90
66928;DHT22;59882;45.624;11.698;2022-10-15T17:04:05;20.70;64.00
66928;DHT22;59882;45.624;11.698;2022-10-15T17:06:31;20.60;64.10
66928;DHT22;59882;45.624;11.698;2022-10-15T17:08:59;20.50;64.50
66928;DHT22;59882;45.624;11.698;2022-10-15T17:11:28;20.50;64.60
66928;DHT22;59882;45.624;11.698;2022-10-15T17:13:57;20.40;64.60
66928;DHT22;59882;45.624;11.698;2022-10-15T17:16:26;20.40;64.80
66928;DHT22;59882;45.624;11.698;2022-10-15T17:18:52;20.40;65.30
66928;DHT22;59882;45.624;11.698;2022-10-15T17:21:20;20.40;65.50
66928;DHT22;59882;45.624;11.698;2022-10-15T17:23:47;20.30;65.70
66928;DHT22;59882;45.624;11.698;2022-10-15T17:26:16;20.30;66.00
66928;DHT22;59882;45.624;11.698;2022-10-15T17:28:43;20.20;66.00
66928;DHT22;59882;45.624;11.698;2022-10-15T17:31:11;20.20;66.20
66928;DHT22;59882;45.624;11.698;2022-10-15T17:33:39;20.10;66.30
66928;DHT22;59882;45.624;11.698;2022-10-15T17:36:10;20.10;66.50
66928;DHT22;59882;45.624;11.698;2022-10-15T17:38:36;20.00;66.60
66928;DHT22;59882;45.624;11.698;2022-10-15T17:41:10;20.00;67.00
66928;DHT22;59882;45.624;11.698;2022-10-15T17:43:36;20.00;67.00
66928;DHT22;59882;45.624;11.698;2022-10-15T17:46:05;19.90;67.00
66928;DHT22;59882;45.624;11.698;2022-10-15T17:48:32;19.90;67.20
66928;DHT22;59882;45.624;11.698;2022-10-15T17:50:59;19.90;67.60
66928;DHT22;59882;45.624;11.698;2022-10-15T17:53:25;19.90;67.50
66928;DHT22;59882;45.624;11.698;2022-10-15T17:55:50;19.80;67.60
66928;DHT22;59882;45.624;11.698;2022-10-15T17:58:16;19.80;68.10
66928;DHT22;59882;45.624;11.698;2022-10-15T18:00:43;19.70;68.30